Time;durP1;ratioP1;P1;durP2;ratioP2;P2;SDS_P1;SDS_P2;PMS_P1;PMS_P2;Temp;Humidity;BMP_temperature;BMP_pressure;BME280_temperature;BME280_humidity;BME280_pressure;Samples;Min_cycle;Max_cycle;Signal;HPM_P1;HPM_P2
2021/08/14 00:00:52;;;;;;;20.38;4.35;;;;;;;;;;4951619;29;20815;-83
2021/08/14 00:03:19;;;;;;;18.80;4.60;;;;;;;;;;4935531;29;20059;-82
2021/08/14 00:05:47;;;;;;;23.40;4.07;;;;;;;;;;4952728;29;20136;-82
2021/08/14 00:08:14;;;;;;;16.17;4.30;;;;;;;;;;4935298;29;20082;-82
2021/08/14 00:10:41;;;;;;;15.57;3.63;;;;;;;;;;4951425;29;20047;-82
2021/08/14 00:13:08;;;;;;;16.38;4.72;;;;;;;;;;4934981;29;20043;-83
2021/08/14 00:15:44;;;;;;;16.45;3.95;;;;;;;;;;4941713;29;20134;-82
2021/08/14 00:18:11;;;;;;;19.33;4.30;;;;;;;;;;4935316;29;20122;-82
2021/08/14 00:20:38;;;;;;;17.88;4.72;;;;;;;;;;4922797;29;20473;-82
2021/08/14 00:23:05;;;;;;;22.42;4.85;;;;;;;;;;4952851;29;20130;-82
2021/08/14 00:25:32;;;;;;;19.15;3.83;;;;;;;;;;4929565;29;20047;-82
2021/08/14 00:28:01;;;;;;;15.82;4.38;;;;;;;;;;4941899;28;20130;-82
2021/08/14 00:30:28;;;;;;;19.98;3.45;;;;;;;;;;4934977;29;20048;-82
2021/08/14 00:32:55;;;;;;;11.07;3.17;;;;;;;;;;4951595;29;20082;-83
2021/08/14 00:35:22;;;;;;;25.25;4.00;;;;;;;;;;4966878;28;20130;-82
2021/08/14 00:37:50;;;;;;;23.50;4.65;;;;;;;;;;4934951;29;20094;-82
2021/08/14 00:40:17;;;;;;;16.52;3.53;;;;;;;;;;4966943;28;20086;-82
2021/08/14 00:42:44;;;;;;;25.15;3.63;;;;;;;;;;4952018;29;20136;-82
2021/08/14 00:45:12;;;;;;;27.50;4.20;;;;;;;;;;4935212;29;20074;-82
2021/08/14 00:47:42;;;;;;;17.33;3.95;;;;;;;;;;4952595;29;20645;-82
2021/08/14 00:50:11;;;;;;;17.45;3.60;;;;;;;;;;4935055;29;20055;-82
2021/08/14 00:52:38;;;;;;;26.20;4.32;;;;;;;;;;4933211;29;20557;-82
2021/08/14 00:55:05;;;;;;;27.67;4.30;;;;;;;;;;4934233;29;20085;-82
2021/08/14 00:57:33;;;;;;;11.60;3.55;;;;;;;;;;4932293;29;20090;-82
2021/08/14 01:00:00;;;;;;;14.68;4.13;;;;;;;;;;4949444;29;20063;-82
2021/08/14 01:02:28;;;;;;;14.82;3.17;;;;;;;;;;4934865;29;20094;-82
2021/08/14 01:04:56;;;;;;;19.20;3.70;;;;;;;;;;4951926;29;20059;-82
2021/08/14 01:07:23;;;;;;;21.15;3.88;;;;;;;;;;4967375;28;20081;-82
2021/08/14 01:09:50;;;;;;;23.25;4.20;;;;;;;;;;4937992;29;20083;-82
2021/08/14 01:12:18;;;;;;;17.40;3.67;;;;;;;;;;4920387;29;20174;-81
2021/08/14 01:14:48;;;;;;;17.20;4.00;;;;;;;;;;4945724;29;20728;-83
2021/08/14 01:17:19;;;;;;;19.52;3.95;;;;;;;;;;4937895;29;20074;-82
2021/08/14 01:19:47;;;;;;;15.82;4.00;;;;;;;;;;4951662;29;20049;-82
2021/08/14 01:22:15;;;;;;;16.63;3.83;;;;;;;;;;4924065;29;20079;-83
2021/08/14 01:24:43;;;;;;;17.95;4.07;;;;;;;;;;4937333;28;20078;-83
2021/08/14 01:27:10;;;;;;;19.63;3.83;;;;;;;;;;4951950;29;20086;-82
2021/08/14 01:29:39;;;;;;;18.20;3.45;;;;;;;;;;4925760;29;20087;-82
2021/08/14 01:32:08;;;;;;;14.57;3.65;;;;;;;;;;4950380;28;20620;-83
2021/08/14 01:34:38;;;;;;;20.17;3.92;;;;;;;;;;4938282;29;20666;-82
2021/08/14 01:37:08;;;;;;;17.38;3.70;;;;;;;;;;4938203;29;20131;-83
2021/08/14 01:39:35;;;;;;;21.90;4.00;;;;;;;;;;4921045;29;20079;-83
2021/08/14 01:42:04;;;;;;;16.98;3.00;;;;;;;;;;4952276;29;20126;-82
2021/08/14 01:44:32;;;;;;;29.77;4.18;;;;;;;;;;4945436;28;20079;-82
2021/08/14 01:47:00;;;;;;;16.95;4.97;;;;;;;;;;4944361;29;20704;-82
2021/08/14 01:49:27;;;;;;;16.48;3.97;;;;;;;;;;4947318;29;20115;-82
2021/08/14 01:51:54;;;;;;;21.80;3.72;;;;;;;;;;4938394;29;20127;-82
2021/08/14 01:54:22;;;;;;;21.77;4.03;;;;;;;;;;4936406;29;20103;-82
2021/08/14 01:56:50;;;;;;;11.65;3.33;;;;;;;;;;4966468;28;20134;-83
2021/08/14 01:59:17;;;;;;;23.05;4.72;;;;;;;;;;4942881;29;20146;-82
2021/08/14 02:01:44;;;;;;;20.67;4.80;;;;;;;;;;4934918;29;20075;-82
2021/08/14 02:04:12;;;;;;;26.85;4.60;;;;;;;;;;4949837;29;20143;-82
2021/08/14 02:06:39;;;;;;;31.33;5.20;;;;;;;;;;4955471;29;20083;-83
2021/08/14 02:09:14;;;;;;;22.42;3.78;;;;;;;;;;4955115;29;20464;-83
2021/08/14 02:11:41;;;;;;;19.33;3.83;;;;;;;;;;4919371;29;20087;-83
2021/08/14 02:14:09;;;;;;;31.77;4.32;;;;;;;;;;4947182;29;20756;-82
2021/08/14 02:16:36;;;;;;;21.08;5.68;;;;;;;;;;4951262;29;20078;-82
2021/08/14 02:19:04;;;;;;;15.35;4.07;;;;;;;;;;4936196;29;20091;-82
2021/08/14 02:21:32;;;;;;;23.98;4.30;;;;;;;;;;4941109;29;20077;-83
2021/08/14 02:24:00;;;;;;;24.35;4.38;;;;;;;;;;4939913;29;20083;-82
2021/08/14 02:26:30;;;;;;;23.65;4.88;;;;;;;;;;4952719;29;20058;-82
2021/08/14 02:28:57;;;;;;;16.00;4.22;;;;;;;;;;4939084;29;20074;-82
2021/08/14 02:31:25;;;;;;;19.08;4.13;;;;;;;;;;4970522;28;20047;-82
2021/08/14 02:33:53;;;;;;;27.67;4.25;;;;;;;;;;4975693;28;20075;-82
2021/08/14 02:36:20;;;;;;;21.63;4.35;;;;;;;;;;4961600;28;20166;-82
2021/08/14 02:38:48;;;;;;;21.88;4.80;;;;;;;;;;4953920;29;20481;-82
2021/08/14 02:41:15;;;;;;;26.80;5.20;;;;;;;;;;4930576;29;20527;-82
2021/08/14 02:43:42;;;;;;;17.60;4.13;;;;;;;;;;4966324;28;20090;-82
2021/08/14 02:46:09;;;;;;;31.38;4.72;;;;;;;;;;4969335;28;20134;-83
2021/08/14 02:48:36;;;;;;;20.63;4.25;;;;;;;;;;4922080;29;20122;-82
2021/08/14 02:51:08;;;;;;;24.33;4.05;;;;;;;;;;4935960;29;20126;-82
2021/08/14 02:53:35;;;;;;;27.02;4.57;;;;;;;;;;4954629;29;20079;-83
2021/08/14 02:56:03;;;;;;;24.83;4.78;;;;;;;;;;4952564;28;20075;-83
2021/08/14 02:58:30;;;;;;;17.20;3.85;;;;;;;;;;4936569;28;20126;-83
2021/08/14 03:00:57;;;;;;;24.50;4.93;;;;;;;;;;4931547;29;20142;-84
2021/08/14 03:03:25;;;;;;;31.35;4.70;;;;;;;;;;4946949;29;20103;-82
2021/08/14 03:05:52;;;;;;;15.30;3.60;;;;;;;;;;4948342;29;20491;-82
2021/08/14 03:08:20;;;;;;;22.48;4.30;;;;;;;;;;4952079;29;20134;-82
2021/08/14 03:10:53;;;;;;;21.02;4.18;;;;;;;;;;4949384;29;20142;-82
2021/08/14 03:13:20;;;;;;;22.08;4.15;;;;;;;;;;4953832;29;20047;-82
2021/08/14 03:15:49;;;;;;;14.20;4.03;;;;;;;;;;4953469;29;20051;-82
2021/08/14 03:18:16;;;;;;;22.02;3.95;;;;;;;;;;4953860;29;20472;-82
2021/08/14 03:20:44;;;;;;;32.10;4.30;;;;;;;;;;4943010;29;20481;-82
2021/08/14 03:23:11;;;;;;;20.10;4.32;;;;;;;;;;4954507;29;20449;-82
2021/08/14 03:25:38;;;;;;;19.60;4.72;;;;;;;;;;4926717;29;20656;-82
2021/08/14 03:28:05;;;;;;;25.67;5.18;;;;;;;;;;4929802;29;20054;-82
2021/08/14 03:30:32;;;;;;;18.95;5.15;;;;;;;;;;4968640;28;20139;-82
2021/08/14 03:33:00;;;;;;;31.13;4.55;;;;;;;;;;4968916;28;20392;-81
2021/08/14 03:35:33;;;;;;;26.10;4.13;;;;;;;;;;4936060;29;20047;-81
2021/08/14 03:38:00;;;;;;;41.78;4.80;;;;;;;;;;4952858;29;20082;-82
2021/08/14 03:40:27;;;;;;;22.95;4.50;;;;;;;;;;4947305;29;20134;-82
2021/08/14 03:42:55;;;;;;;20.52;4.82;;;;;;;;;;4927571;29;20485;-81
2021/08/14 03:45:22;;;;;;;20.30;4.28;;;;;;;;;;4943746;29;20133;-81
2021/08/14 03:47:49;;;;;;;27.10;4.50;;;;;;;;;;4932575;29;20047;-81
2021/08/14 03:50:28;;;;;;;20.52;4.93;;;;;;;;;;4953420;29;20143;-82
2021/08/14 03:52:55;;;;;;;26.33;5.45;;;;;;;;;;4964269;28;20055;-81
2021/08/14 03:55:23;;;;;;;26.05;4.57;;;;;;;;;;4942546;29;20078;-82
2021/08/14 03:57:50;;;;;;;19.95;5.00;;;;;;;;;;4931719;29;20048;-82
2021/08/14 04:00:17;;;;;;;18.75;4.63;;;;;;;;;;4935396;29;20130;-81
2021/08/14 04:02:45;;;;;;;17.35;3.80;;;;;;;;;;4953599;29;20083;-82
2021/08/14 04:05:18;;;;;;;22.02;5.22;;;;;;;;;;4952468;28;20062;-82
2021/08/14 04:07:45;;;;;;;27.75;5.95;;;;;;;;;;4938935;29;20146;-82
2021/08/14 04:10:12;;;;;;;24.13;4.35;;;;;;;;;;4947108;29;20085;-82
2021/08/14 04:12:40;;;;;;;18.55;4.40;;;;;;;;;;4952786;29;20050;-82
2021/08/14 04:15:07;;;;;;;20.65;4.78;;;;;;;;;;4952282;29;20090;-82
2021/08/14 04:17:38;;;;;;;24.48;4.85;;;;;;;;;;4940472;29;20795;-81
2021/08/14 04:20:06;;;;;;;20.00;4.13;;;;;;;;;;4963217;28;20362;-81
2021/08/14 04:22:33;;;;;;;19.20;4.30;;;;;;;;;;4925668;29;20287;-82
2021/08/14 04:25:00;;;;;;;34.22;5.53;;;;;;;;;;4940247;29;20134;-82
2021/08/14 04:27:33;;;;;;;27.80;5.03;;;;;;;;;;4952814;29;20415;-82
2021/08/14 04:30:04;;;;;;;27.58;4.63;;;;;;;;;;4970675;28;20550;-82
2021/08/14 04:32:35;;;;;;;20.77;5.18;;;;;;;;;;4943002;29;20098;-82
2021/08/14 04:35:06;;;;;;;24.30;5.15;;;;;;;;;;4952677;29;20446;-82
2021/08/14 04:37:33;;;;;;;22.40;5.32;;;;;;;;;;4952642;29;20102;-82
2021/08/14 04:40:01;;;;;;;24.70;4.95;;;;;;;;;;4940458;29;20059;-82
2021/08/14 04:42:33;;;;;;;28.30;4.75;;;;;;;;;;4953092;29;20054;-82
2021/08/14 04:45:00;;;;;;;23.70;5.30;;;;;;;;;;4952755;29;20134;-82
2021/08/14 04:47:29;;;;;;;24.48;5.38;;;;;;;;;;4944062;29;20533;-82
2021/08/14 04:49:58;;;;;;;21.15;5.07;;;;;;;;;;4947023;29;20054;-81
2021/08/14 04:52:27;;;;;;;30.00;5.70;;;;;;;;;;4967078;28;20089;-81
2021/08/14 04:54:56;;;;;;;16.95;3.92;;;;;;;;;;4963053;28;20067;-81
2021/08/14 04:57:24;;;;;;;28.42;5.35;;;;;;;;;;4960078;28;20153;-80
2021/08/14 04:59:51;;;;;;;22.30;4.95;;;;;;;;;;4932549;29;20540;-81
2021/08/14 05:02:19;;;;;;;23.48;5.20;;;;;;;;;;4950430;29;20055;-82
2021/08/14 05:04:46;;;;;;;26.20;4.32;;;;;;;;;;4961653;28;20058;-81
2021/08/14 05:07:14;;;;;;;18.80;3.90;;;;;;;;;;4945040;28;20146;-82
2021/08/14 05:09:43;;;;;;;24.58;5.03;;;;;;;;;;4949812;28;20138;-81
2021/08/14 05:12:17;;;;;;;18.63;4.65;;;;;;;;;;4945337;29;20054;-84
2021/08/14 05:14:44;;;;;;;22.33;5.40;;;;;;;;;;4930863;29;20039;-81
2021/08/14 05:17:12;;;;;;;28.48;5.15;;;;;;;;;;4948116;29;20134;-82
2021/08/14 05:19:40;;;;;;;27.20;6.65;;;;;;;;;;4942921;29;20135;-82
2021/08/14 05:22:07;;;;;;;25.20;4.32;;;;;;;;;;4939018;29;20580;-80
2021/08/14 05:24:34;;;;;;;26.08;5.72;;;;;;;;;;4951308;29;20137;-81
2021/08/14 05:27:03;;;;;;;21.73;4.57;;;;;;;;;;4952382;29;20416;-84
2021/08/14 05:29:30;;;;;;;20.35;5.15;;;;;;;;;;4969155;28;20051;-84
2021/08/14 05:32:00;;;;;;;20.38;4.32;;;;;;;;;;4931142;29;20563;-84
2021/08/14 05:34:28;;;;;;;14.77;4.65;;;;;;;;;;4951131;28;20050;-83
2021/08/14 05:37:02;;;;;;;20.40;4.47;;;;;;;;;;4951473;28;20075;-85
2021/08/14 05:39:31;;;;;;;25.63;4.07;;;;;;;;;;4933900;28;20468;-88
2021/08/14 05:42:04;;;;;;;18.48;4.85;;;;;;;;;;4937295;28;20051;-86
2021/08/14 05:44:32;;;;;;;25.13;4.78;;;;;;;;;;4956307;28;20054;-85
2021/08/14 05:47:04;;;;;;;21.10;5.28;;;;;;;;;;4941537;28;20138;-87
2021/08/14 05:49:32;;;;;;;23.90;4.93;;;;;;;;;;4944423;28;20130;-87
2021/08/14 05:52:01;;;;;;;17.27;4.55;;;;;;;;;;4937296;28;20042;-89
2021/08/14 05:54:28;;;;;;;17.25;3.97;;;;;;;;;;4957243;28;20173;-82
2021/08/14 05:56:59;;;;;;;17.20;4.45;;;;;;;;;;4954465;28;20177;-83
2021/08/14 05:59:27;;;;;;;24.05;4.72;;;;;;;;;;4940374;28;20173;-83
2021/08/14 06:01:54;;;;;;;30.27;5.72;;;;;;;;;;4954233;28;20569;-83
2021/08/14 06:04:21;;;;;;;30.65;5.50;;;;;;;;;;4936329;28;20046;-85
2021/08/14 06:06:52;;;;;;;20.83;5.10;;;;;;;;;;4935119;28;20051;-83
2021/08/14 06:09:19;;;;;;;27.95;5.93;;;;;;;;;;4941870;28;20074;-84
2021/08/14 06:11:46;;;;;;;20.35;4.53;;;;;;;;;;4956093;28;20133;-82
2021/08/14 06:14:13;;;;;;;20.35;4.78;;;;;;;;;;4955508;28;20572;-84
2021/08/14 06:16:40;;;;;;;21.35;5.22;;;;;;;;;;4957283;28;20075;-80
2021/08/14 06:19:09;;;;;;;20.42;4.93;;;;;;;;;;4939258;28;20138;-88
2021/08/14 06:21:37;;;;;;;16.25;4.82;;;;;;;;;;4939627;28;20471;-88
2021/08/14 06:24:04;;;;;;;20.08;4.88;;;;;;;;;;4934440;28;20078;-88
2021/08/14 06:26:31;;;;;;;22.90;4.78;;;;;;;;;;4936655;28;20480;-86
2021/08/14 06:28:59;;;;;;;18.67;4.30;;;;;;;;;;4955788;28;20134;-88
2021/08/14 06:31:31;;;;;;;20.60;4.43;;;;;;;;;;4957563;28;20080;-84
2021/08/14 06:33:59;;;;;;;20.92;4.53;;;;;;;;;;4955342;28;20050;-85
2021/08/14 06:36:26;;;;;;;18.25;4.88;;;;;;;;;;4935461;28;20071;-85
2021/08/14 06:38:53;;;;;;;17.15;4.43;;;;;;;;;;4965407;28;20146;-85
2021/08/14 06:41:26;;;;;;;26.25;4.10;;;;;;;;;;4930562;28;20141;-86
2021/08/14 06:43:53;;;;;;;26.95;13.55;;;;;;;;;;4935618;28;20141;-85
2021/08/14 06:46:20;;;;;;;21.77;4.43;;;;;;;;;;4936854;28;20051;-85
2021/08/14 06:48:48;;;;;;;30.67;5.43;;;;;;;;;;4954734;28;20126;-86
2021/08/14 06:51:15;;;;;;;15.63;4.68;;;;;;;;;;4955212;28;20146;-85
2021/08/14 06:53:42;;;;;;;17.23;3.47;;;;;;;;;;4955879;28;20154;-85
2021/08/14 06:56:10;;;;;;;12.45;3.95;;;;;;;;;;4937130;28;20137;-84
2021/08/14 06:58:37;;;;;;;19.00;4.20;;;;;;;;;;4952618;28;20134;-85
2021/08/14 07:01:10;;;;;;;20.10;3.95;;;;;;;;;;4936857;28;20082;-86
2021/08/14 07:03:38;;;;;;;32.20;5.10;;;;;;;;;;4937087;28;20134;-86
2021/08/14 07:06:05;;;;;;;19.52;3.47;;;;;;;;;;4950507;28;20400;-85
2021/08/14 07:08:32;;;;;;;12.82;2.78;;;;;;;;;;4929867;28;20119;-86
2021/08/14 07:10:59;;;;;;;16.98;4.22;;;;;;;;;;4929920;28;20049;-86
2021/08/14 07:13:27;;;;;;;20.08;4.20;;;;;;;;;;4932113;28;20422;-84
2021/08/14 07:15:54;;;;;;;14.23;3.72;;;;;;;;;;4946882;28;20066;-84
2021/08/14 07:18:21;;;;;;;17.83;3.72;;;;;;;;;;4949215;28;20059;-85
2021/08/14 07:20:49;;;;;;;20.83;3.65;;;;;;;;;;4932528;28;20097;-85
2021/08/14 07:23:16;;;;;;;10.25;3.25;;;;;;;;;;4933546;28;20129;-85
2021/08/14 07:25:43;;;;;;;21.02;3.53;;;;;;;;;;4952225;28;20510;-84
2021/08/14 07:28:10;;;;;;;15.00;3.35;;;;;;;;;;4954612;28;20121;-85
2021/08/14 07:30:37;;;;;;;39.45;5.32;;;;;;;;;;4948692;28;20834;-84
2021/08/14 07:33:05;;;;;;;11.85;3.15;;;;;;;;;;4927786;28;20138;-85
2021/08/14 07:35:32;;;;;;;16.13;3.53;;;;;;;;;;4952591;28;20149;-86
2021/08/14 07:37:59;;;;;;;15.18;3.13;;;;;;;;;;4939110;28;20465;-86
2021/08/14 07:40:26;;;;;;;12.55;3.20;;;;;;;;;;4936298;28;20061;-85
2021/08/14 07:42:54;;;;;;;14.50;3.92;;;;;;;;;;4937568;28;20163;-84
2021/08/14 07:45:23;;;;;;;12.98;3.22;;;;;;;;;;4938724;28;20147;-84
2021/08/14 07:47:50;;;;;;;13.65;3.45;;;;;;;;;;4954477;28;20131;-85
2021/08/14 07:50:24;;;;;;;15.40;3.33;;;;;;;;;;4951370;28;20093;-86
2021/08/14 07:52:53;;;;;;;13.68;3.22;;;;;;;;;;4952122;28;20126;-85
2021/08/14 07:55:23;;;;;;;15.63;2.97;;;;;;;;;;4939289;28;20565;-86
2021/08/14 07:57:51;;;;;;;13.35;3.55;;;;;;;;;;4935172;28;20062;-86
2021/08/14 08:00:20;;;;;;;9.10;2.53;;;;;;;;;;4935173;28;20067;-86
2021/08/14 08:02:48;;;;;;;11.30;2.83;;;;;;;;;;4967881;28;20134;-85
2021/08/14 08:05:16;;;;;;;16.38;3.35;;;;;;;;;;4969225;28;20051;-85
2021/08/14 08:07:44;;;;;;;13.55;2.72;;;;;;;;;;4939483;28;20057;-85
2021/08/14 08:10:13;;;;;;;12.55;2.60;;;;;;;;;;4954243;28;20042;-85
2021/08/14 08:12:40;;;;;;;13.48;3.42;;;;;;;;;;4939082;28;20134;-84
2021/08/14 08:15:08;;;;;;;12.25;3.10;;;;;;;;;;4952720;28;20094;-85
2021/08/14 08:17:36;;;;;;;8.82;2.63;;;;;;;;;;4935261;28;20055;-85
2021/08/14 08:20:04;;;;;;;10.20;2.38;;;;;;;;;;4964112;28;20051;-85
2021/08/14 08:22:33;;;;;;;11.55;2.90;;;;;;;;;;4934269;28;20059;-85
2021/08/14 08:25:01;;;;;;;12.55;2.70;;;;;;;;;;4935511;28;20122;-85
2021/08/14 08:27:31;;;;;;;11.23;2.53;;;;;;;;;;4952702;28;20102;-84
2021/08/14 08:30:17;;;;;;;16.00;3.47;;;;;;;;;;4935357;28;20055;-84
2021/08/14 08:32:45;;;;;;;12.02;3.03;;;;;;;;;;4966011;28;20052;-85
2021/08/14 08:35:13;;;;;;;6.57;2.17;;;;;;;;;;4934103;28;20144;-85
2021/08/14 08:37:40;;;;;;;20.33;4.03;;;;;;;;;;4938600;28;20047;-86
2021/08/14 08:40:19;;;;;;;13.63;4.18;;;;;;;;;;4953111;28;20058;-85
2021/08/14 08:42:47;;;;;;;17.25;3.95;;;;;;;;;;4954901;28;20050;-86
2021/08/14 08:45:15;;;;;;;103.97;9.20;;;;;;;;;;4939943;28;20154;-85
2021/08/14 08:47:43;;;;;;;9.60;2.75;;;;;;;;;;4950877;28;20192;-84
2021/08/14 08:50:13;;;;;;;13.68;2.80;;;;;;;;;;4953565;28;20058;-85
2021/08/14 08:52:41;;;;;;;7.70;2.53;;;;;;;;;;4949040;28;20074;-86
2021/08/14 08:55:11;;;;;;;6.63;2.50;;;;;;;;;;4941501;28;20903;-85
2021/08/14 08:57:38;;;;;;;11.02;2.55;;;;;;;;;;4943825;28;20519;-85
2021/08/14 09:00:06;;;;;;;13.38;3.65;;;;;;;;;;4955089;28;20043;-86
2021/08/14 09:02:34;;;;;;;10.02;2.55;;;;;;;;;;4953228;28;20047;-84
2021/08/14 09:05:05;;;;;;;12.10;2.88;;;;;;;;;;4940004;28;20087;-86
2021/08/14 09:07:32;;;;;;;10.52;2.83;;;;;;;;;;4943436;28;20114;-84
2021/08/14 09:10:00;;;;;;;15.80;3.80;;;;;;;;;;4938560;28;20055;-85
2021/08/14 09:12:44;;;;;;;10.32;2.80;;;;;;;;;;4941006;28;20039;-85
2021/08/14 09:15:22;;;;;;;9.48;2.50;;;;;;;;;;4958815;28;20051;-85
2021/08/14 09:17:59;;;;;;;11.20;2.83;;;;;;;;;;4939182;28;20047;-86
2021/08/14 09:20:29;;;;;;;10.48;2.83;;;;;;;;;;4936386;28;21130;-87
2021/08/14 09:23:04;;;;;;;17.13;3.33;;;;;;;;;;4941805;28;20141;-87
2021/08/14 09:25:42;;;;;;;11.18;2.38;;;;;;;;;;4943797;28;21050;-87
2021/08/14 09:28:12;;;;;;;12.25;2.55;;;;;;;;;;4959367;28;20134;-86
2021/08/14 09:30:46;;;;;;;12.05;2.75;;;;;;;;;;4938428;28;20047;-85
2021/08/14 09:33:18;;;;;;;10.07;2.42;;;;;;;;;;4959003;28;20047;-86
2021/08/14 09:35:45;;;;;;;11.82;3.38;;;;;;;;;;4954963;28;20047;-87
2021/08/14 09:38:14;;;;;;;11.48;3.20;;;;;;;;;;4937027;28;20053;-87
2021/08/14 09:40:42;;;;;;;10.85;2.95;;;;;;;;;;4940221;28;20138;-86
2021/08/14 09:43:10;;;;;;;11.85;2.58;;;;;;;;;;4938435;28;20144;-86
2021/08/14 09:45:37;;;;;;;11.15;3.10;;;;;;;;;;4939530;28;20126;-86
2021/08/14 09:48:24;;;;;;;16.80;2.92;;;;;;;;;;4939799;28;20051;-85
2021/08/14 09:50:52;;;;;;;12.57;3.88;;;;;;;;;;4952063;28;20143;-86
2021/08/14 09:53:20;;;;;;;12.77;3.33;;;;;;;;;;4932783;28;20519;-85
2021/08/14 09:55:53;;;;;;;10.93;2.83;;;;;;;;;;4932179;28;20520;-87
2021/08/14 09:58:23;;;;;;;8.65;2.60;;;;;;;;;;4954360;28;20059;-85
2021/08/14 10:00:52;;;;;;;7.63;2.92;;;;;;;;;;4955105;28;20622;-85
2021/08/14 10:03:19;;;;;;;8.98;2.83;;;;;;;;;;4942032;28;21321;-85
2021/08/14 10:05:47;;;;;;;7.10;2.00;;;;;;;;;;4954676;28;20061;-85
2021/08/14 10:08:15;;;;;;;8.77;2.78;;;;;;;;;;4955974;28;20184;-88
2021/08/14 10:10:42;;;;;;;10.30;2.83;;;;;;;;;;4940735;28;20098;-84
2021/08/14 10:13:32;;;;;;;13.52;3.45;;;;;;;;;;4939335;28;20801;-86
2021/08/14 10:15:59;;;;;;;11.98;2.72;;;;;;;;;;4956312;28;20047;-85
2021/08/14 10:18:27;;;;;;;12.15;3.90;;;;;;;;;;4936055;28;20055;-86
2021/08/14 10:20:54;;;;;;;17.35;3.10;;;;;;;;;;4955552;28;20933;-85
2021/08/14 10:23:24;;;;;;;9.32;2.72;;;;;;;;;;4953890;28;20389;-86
2021/08/14 10:25:58;;;;;;;11.88;2.70;;;;;;;;;;4938880;28;20134;-86
2021/08/14 10:28:43;;;;;;;10.93;2.92;;;;;;;;;;4938985;28;20039;-85
2021/08/14 10:31:31;;;;;;;8.82;2.75;;;;;;;;;;4953080;28;20158;-86
2021/08/14 10:34:13;;;;;;;7.93;2.55;;;;;;;;;;4954200;28;20050;-85
2021/08/14 10:36:41;;;;;;;8.15;2.13;;;;;;;;;;4936406;28;20199;-84
2021/08/14 10:39:23;;;;;;;9.43;2.40;;;;;;;;;;4937513;28;20145;-84
2021/08/14 10:41:51;;;;;;;7.15;2.53;;;;;;;;;;4938841;28;20065;-85
2021/08/14 10:44:37;;;;;;;7.90;2.95;;;;;;;;;;4956972;28;20078;-83
2021/08/14 10:47:04;;;;;;;;;;;;;;;;;;4971110;28;20126;-84
2021/08/14 10:49:31;;;;;;;8.82;3.83;;;;;;;;;;4942376;28;19926;-86
2021/08/14 10:52:02;;;;;;;13.85;4.90;;;;;;;;;;4938156;28;20126;-88
2021/08/14 10:54:42;;;;;;;13.25;3.15;;;;;;;;;;4954513;28;20134;-86
2021/08/14 10:57:10;;;;;;;10.35;2.80;;;;;;;;;;4933115;28;20133;-86
2021/08/14 10:59:38;;;;;;;14.48;3.72;;;;;;;;;;4933053;28;20053;-88
2021/08/14 11:02:28;;;;;;;13.77;3.50;;;;;;;;;;4951641;28;20145;-86
2021/08/14 11:04:57;;;;;;;9.68;2.72;;;;;;;;;;4940493;28;20142;-88
2021/08/14 11:07:25;;;;;;;5.18;2.45;;;;;;;;;;4935895;28;20062;-90
2021/08/14 11:09:58;;;;;;;11.75;3.10;;;;;;;;;;4936509;28;20130;-82
2021/08/14 11:12:55;;;;;;;13.57;3.40;;;;;;;;;;4947065;28;20572;-83
2021/08/14 11:15:25;;;;;;;8.75;2.75;;;;;;;;;;4943964;28;20051;-85
2021/08/14 11:17:53;;;;;;;10.85;2.97;;;;;;;;;;4930365;28;20138;-83
2021/08/14 11:20:20;;;;;;;6.80;2.30;;;;;;;;;;4950337;28;20176;-85
2021/08/14 11:22:48;;;;;;;12.35;2.60;;;;;;;;;;4931996;28;20129;-83
2021/08/14 11:25:24;;;;;;;16.35;2.92;;;;;;;;;;4949573;28;20061;-81
2021/08/14 11:28:09;;;;;;;8.13;2.45;;;;;;;;;;4938442;28;20053;-84
2021/08/14 11:30:36;;;;;;;4.83;1.93;;;;;;;;;;4938165;28;20089;-85
2021/08/14 11:33:05;;;;;;;11.10;2.67;;;;;;;;;;4938699;28;20299;-86
2021/08/14 11:35:33;;;;;;;14.00;2.53;;;;;;;;;;4939559;28;22823;-84
2021/08/14 11:38:01;;;;;;;9.40;2.75;;;;;;;;;;4935674;28;20138;-84
2021/08/14 11:40:34;;;;;;;7.65;2.05;;;;;;;;;;4950969;28;20129;-84
2021/08/14 11:43:03;;;;;;;10.00;2.78;;;;;;;;;;4940289;28;20114;-87
2021/08/14 11:45:43;;;;;;;10.20;2.50;;;;;;;;;;4933054;28;20074;-85
2021/08/14 11:48:14;;;;;;;9.00;2.35;;;;;;;;;;4937749;28;20315;-86
2021/08/14 11:50:45;;;;;;;7.47;2.83;;;;;;;;;;4950778;28;20073;-86
2021/08/14 11:53:13;;;;;;;8.43;2.05;;;;;;;;;;4943899;28;20134;-85
2021/08/14 11:55:42;;;;;;;9.18;2.50;;;;;;;;;;4932563;28;20074;-86
2021/08/14 11:58:09;;;;;;;6.95;2.55;;;;;;;;;;4952220;28;20075;-84
2021/08/14 12:00:38;;;;;;;8.77;2.78;;;;;;;;;;4934716;28;20118;-85
2021/08/14 12:03:05;;;;;;;8.32;2.85;;;;;;;;;;4932573;28;20051;-82
2021/08/14 12:05:33;;;;;;;9.25;2.80;;;;;;;;;;4935303;28;20055;-82
2021/08/14 12:08:01;;;;;;;11.23;3.25;;;;;;;;;;4936023;28;20066;-82
2021/08/14 12:10:28;;;;;;;13.77;2.80;;;;;;;;;;4950671;28;20146;-83
2021/08/14 12:12:59;;;;;;;9.50;2.60;;;;;;;;;;4953917;28;20437;-84
2021/08/14 12:15:42;;;;;;;9.05;2.63;;;;;;;;;;4952380;28;20082;-83
2021/08/14 12:18:11;;;;;;;10.35;2.47;;;;;;;;;;4934764;28;20066;-84
2021/08/14 12:20:42;;;;;;;11.70;3.00;;;;;;;;;;4935820;28;20101;-83
2021/08/14 12:23:20;;;;;;;7.60;3.00;;;;;;;;;;4937754;28;20679;-84
2021/08/14 12:26:04;;;;;;;9.27;2.90;;;;;;;;;;4937961;28;20054;-85
2021/08/14 12:28:40;;;;;;;6.65;2.20;;;;;;;;;;4966104;28;20134;-84
2021/08/14 12:31:21;;;;;;;10.35;2.33;;;;;;;;;;4930730;28;20094;-83
2021/08/14 12:33:58;;;;;;;10.52;2.50;;;;;;;;;;4930152;28;20047;-83
2021/08/14 12:36:37;;;;;;;7.10;2.60;;;;;;;;;;4929961;28;20051;-86
2021/08/14 12:39:07;;;;;;;9.50;2.53;;;;;;;;;;4948283;28;20070;-84
2021/08/14 12:41:36;;;;;;;7.80;2.83;;;;;;;;;;4950457;28;20061;-83
2021/08/14 12:44:04;;;;;;;10.88;2.45;;;;;;;;;;4936068;28;20503;-83
2021/08/14 12:46:31;;;;;;;6.43;2.38;;;;;;;;;;4951823;28;20542;-84
2021/08/14 12:49:17;;;;;;;12.73;3.30;;;;;;;;;;4951678;28;20066;-85
2021/08/14 12:51:59;;;;;;;7.30;2.63;;;;;;;;;;4936647;28;20129;-86
2021/08/14 12:54:29;;;;;;;8.98;2.85;;;;;;;;;;4934210;28;20508;-84
2021/08/14 12:57:06;;;;;;;11.15;2.67;;;;;;;;;;4935231;28;20042;-85
2021/08/14 12:59:36;;;;;;;9.60;2.63;;;;;;;;;;4951686;28;20759;-84
2021/08/14 13:02:05;;;;;;;21.42;2.55;;;;;;;;;;4948744;28;20051;-84
2021/08/14 13:04:33;;;;;;;6.22;2.25;;;;;;;;;;4952115;28;20047;-83
2021/08/14 13:07:05;;;;;;;3.97;1.83;;;;;;;;;;4970434;28;20051;-83
2021/08/14 13:09:33;;;;;;;5.60;2.15;;;;;;;;;;4936275;28;20130;-83
2021/08/14 13:12:01;;;;;;;7.72;2.40;;;;;;;;;;4935830;28;20169;-82
2021/08/14 13:14:30;;;;;;;6.75;2.67;;;;;;;;;;4952976;28;20047;-84
2021/08/14 13:16:59;;;;;;;12.80;2.42;;;;;;;;;;4934032;28;20891;-82
2021/08/14 13:19:26;;;;;;;11.63;2.42;;;;;;;;;;4947076;28;20104;-83
2021/08/14 13:21:55;;;;;;;7.28;2.35;;;;;;;;;;4932581;28;20046;-83
2021/08/14 13:24:22;;;;;;;6.00;2.55;;;;;;;;;;4943202;28;20157;-83
2021/08/14 13:26:49;;;;;;;8.63;2.35;;;;;;;;;;4930553;28;20047;-84
2021/08/14 13:29:17;;;;;;;5.93;2.55;;;;;;;;;;4947182;28;20181;-89
2021/08/14 13:31:45;;;;;;;17.52;3.08;;;;;;;;;;4943167;28;20157;-87
2021/08/14 13:34:15;;;;;;;7.43;2.38;;;;;;;;;;4946470;28;20055;-85
2021/08/14 13:36:43;;;;;;;9.85;2.60;;;;;;;;;;4938583;28;20130;-84
2021/08/14 13:39:11;;;;;;;10.05;2.47;;;;;;;;;;4933580;28;20130;-85
2021/08/14 13:41:38;;;;;;;11.02;2.28;;;;;;;;;;4956313;28;20732;-83
2021/08/14 13:44:06;;;;;;;8.95;2.35;;;;;;;;;;4954044;28;20057;-84
2021/08/14 13:46:33;;;;;;;10.15;2.33;;;;;;;;;;4938174;28;20057;-84
2021/08/14 13:49:01;;;;;;;9.00;3.08;;;;;;;;;;4938282;28;20184;-84
2021/08/14 13:51:35;;;;;;;6.65;2.42;;;;;;;;;;4939423;28;20066;-84
2021/08/14 13:54:02;;;;;;;9.90;2.90;;;;;;;;;;4955447;28;20042;-84
2021/08/14 13:56:31;;;;;;;6.03;2.35;;;;;;;;;;4954393;28;20054;-84
2021/08/14 13:58:58;;;;;;;12.57;2.75;;;;;;;;;;4953252;28;20138;-84
2021/08/14 14:01:28;;;;;;;7.38;2.40;;;;;;;;;;4955254;28;20552;-84
2021/08/14 14:03:55;;;;;;;6.82;2.45;;;;;;;;;;4966111;28;20047;-84
2021/08/14 14:06:23;;;;;;;10.27;2.25;;;;;;;;;;4939079;28;20051;-84
2021/08/14 14:08:50;;;;;;;8.35;2.60;;;;;;;;;;4938079;28;20571;-84
2021/08/14 14:11:18;;;;;;;7.05;2.35;;;;;;;;;;4936987;28;20440;-84
2021/08/14 14:13:45;;;;;;;8.88;2.80;;;;;;;;;;4969282;28;20126;-84
2021/08/14 14:16:13;;;;;;;8.88;2.22;;;;;;;;;;4952496;28;20070;-84
2021/08/14 14:18:40;;;;;;;13.43;2.75;;;;;;;;;;4954310;28;20489;-84
2021/08/14 14:21:07;;;;;;;7.70;2.67;;;;;;;;;;4956014;28;20895;-85
2021/08/14 14:23:34;;;;;;;10.40;3.05;;;;;;;;;;4937760;28;20462;-85
2021/08/14 14:26:01;;;;;;;8.68;2.30;;;;;;;;;;4952336;28;20134;-84
2021/08/14 14:28:29;;;;;;;6.90;2.75;;;;;;;;;;4957301;28;20134;-84
2021/08/14 14:30:56;;;;;;;11.57;2.50;;;;;;;;;;4937929;28;20261;-86
2021/08/14 14:33:23;;;;;;;5.50;2.40;;;;;;;;;;4937769;28;20062;-85
2021/08/14 14:35:50;;;;;;;11.80;2.80;;;;;;;;;;4938533;28;20047;-84
2021/08/14 14:38:17;;;;;;;11.05;2.97;;;;;;;;;;4952594;28;20047;-85
2021/08/14 14:40:45;;;;;;;7.07;2.45;;;;;;;;;;4938631;28;20138;-86
2021/08/14 14:43:12;;;;;;;10.75;2.55;;;;;;;;;;4952658;28;20125;-85
2021/08/14 14:45:50;;;;;;;8.68;2.63;;;;;;;;;;4957063;28;20051;-84